sensor_id;sensor_type;location;lat;lon;timestamp;temperature;humidity
15115;DHT22;7658;51.456;7.622;2022-12-29T00:01:30;9.80;99.90
15115;DHT22;7658;51.456;7.622;2022-12-29T00:03:55;9.80;99.90
15115;DHT22;7658;51.456;7.622;2022-12-29T00:06:21;9.90;99.90
15115;DHT22;7658;51.456;7.622;2022-12-29T00:08:47;10.00;99.90
15115;DHT22;7658;51.456;7.622;2022-12-29T00:11:19;10.10;99.90
15115;DHT22;7658;51.456;7.622;2022-12-29T00:13:45;10.10;99.90
15115;DHT22;7658;51.456;7.622;2022-12-29T00:16:30;10.10;99.90
15115;DHT22;7658;51.456;7.622;2022-12-29T00:18:56;10.10;99.90
15115;DHT22;7658;51.456;7.622;2022-12-29T00:21:24;10.20;99.90
15115;DHT22;7658;51.456;7.622;2022-12-29T00:24:18;10.20;99.90
15115;DHT22;7658;51.456;7.622;2022-12-29T00:27:13;10.30;99.90
15115;DHT22;7658;51.456;7.622;2022-12-29T00:29:58;10.40;99.90
15115;DHT22;7658;51.456;7.622;2022-12-29T00:32:42;10.40;99.90
15115;DHT22;7658;51.456;7.622;2022-12-29T00:35:30;10.40;99.90
15115;DHT22;7658;51.456;7.622;2022-12-29T00:38:03;10.40;99.90
15115;DHT22;7658;51.456;7.622;2022-12-29T00:40:49;10.30;99.90
15115;DHT22;7658;51.456;7.622;2022-12-29T00:43:33;10.30;99.90
15115;DHT22;7658;51.456;7.622;2022-12-29T00:46:17;10.20;99.90
15115;DHT22;7658;51.456;7.622;2022-12-29T00:48:43;10.30;99.90
15115;DHT22;7658;51.456;7.622;2022-12-29T00:51:27;10.20;99.90
15115;DHT22;7658;51.456;7.622;2022-12-29T00:53:53;10.20;99.90
15115;DHT22;7658;51.456;7.622;2022-12-29T00:56:19;10.20;99.90
15115;DHT22;7658;51.456;7.622;2022-12-29T00:58:44;10.20;99.90
15115;DHT22;7658;51.456;7.622;2022-12-29T01:01:10;10.20;99.90
15115;DHT22;7658;51.456;7.622;2022-12-29T01:03:37;10.20;99.90
15115;DHT22;7658;51.456;7.622;2022-12-29T01:06:06;10.20;99.90
15115;DHT22;7658;51.456;7.622;2022-12-29T01:08:32;10.20;99.90
15115;DHT22;7658;51.456;7.622;2022-12-29T01:11:06;10.20;99.90
15115;DHT22;7658;51.456;7.622;2022-12-29T01:13:33;10.20;99.90
15115;DHT22;7658;51.456;7.622;2022-12-29T01:15:59;10.20;99.90
15115;DHT22;7658;51.456;7.622;2022-12-29T01:18:26;10.20;99.90
15115;DHT22;7658;51.456;7.622;2022-12-29T01:20:59;10.20;99.90
15115;DHT22;7658;51.456;7.622;2022-12-29T01:23:25;10.20;99.90
15115;DHT22;7658;51.456;7.622;2022-12-29T01:25:51;10.20;99.90
15115;DHT22;7658;51.456;7.622;2022-12-29T01:28:16;10.20;99.90
15115;DHT22;7658;51.456;7.622;2022-12-29T01:30:42;10.20;99.90
15115;DHT22;7658;51.456;7.622;2022-12-29T01:33:08;10.20;99.90
15115;DHT22;7658;51.456;7.622;2022-12-29T01:35:33;10.10;99.90
15115;DHT22;7658;51.456;7.622;2022-12-29T01:37:59;10.20;99.90
15115;DHT22;7658;51.456;7.622;2022-12-29T01:40:25;10.10;99.90
15115;DHT22;7658;51.456;7.622;2022-12-29T01:42:51;10.20;99.90
15115;DHT22;7658;51.456;7.622;2022-12-29T01:45:17;10.20;99.90
15115;DHT22;7658;51.456;7.622;2022-12-29T01:48:03;10.10;99.90
15115;DHT22;7658;51.456;7.622;2022-12-29T01:50:40;10.30;99.90
15115;DHT22;7658;51.456;7.622;2022-12-29T01:53:13;10.30;99.90
15115;DHT22;7658;51.456;7.622;2022-12-29T01:55:55;10.40;99.90
15115;DHT22;7658;51.456;7.622;2022-12-29T01:58:26;10.40;99.90
15115;DHT22;7658;51.456;7.622;2022-12-29T02:00:52;10.30;99.90
15115;DHT22;7658;51.456;7.622;2022-12-29T02:03:20;10.30;99.90
15115;DHT22;7658;51.456;7.622;2022-12-29T02:05:57;10.30;99.90
15115;DHT22;7658;51.456;7.622;2022-12-29T02:08:27;10.30;99.90
15115;DHT22;7658;51.456;7.622;2022-12-29T02:10:56;10.30;99.90
15115;DHT22;7658;51.456;7.622;2022-12-29T02:13:24;10.40;99.90
15115;DHT22;7658;51.456;7.622;2022-12-29T02:15:56;10.40;99.90
15115;DHT22;7658;51.456;7.622;2022-12-29T02:32:24;10.90;99.90
15115;DHT22;7658;51.456;7.622;2022-12-29T02:37:58;10.80;99.90
15115;DHT22;7658;51.456;7.622;2022-12-29T02:40:53;10.70;99.90
15115;DHT22;7658;51.456;7.622;2022-12-29T02:43:26;10.70;99.90
15115;DHT22;7658;51.456;7.622;2022-12-29T02:46:02;10.70;99.90
15115;DHT22;7658;51.456;7.622;2022-12-29T02:53:25;10.60;99.90
15115;DHT22;7658;51.456;7.622;2022-12-29T02:56:10;10.60;99.90
15115;DHT22;7658;51.456;7.622;2022-12-29T02:58:36;10.70;99.90
15115;DHT22;7658;51.456;7.622;2022-12-29T03:18:02;11.10;99.90
15115;DHT22;7658;51.456;7.622;2022-12-29T03:20:49;11.10;99.90
15115;DHT22;7658;51.456;7.622;2022-12-29T03:23:19;11.20;99.90
15115;DHT22;7658;51.456;7.622;2022-12-29T03:25:50;11.20;99.90
15115;DHT22;7658;51.456;7.622;2022-12-29T03:28:28;11.10;99.90
15115;DHT22;7658;51.456;7.622;2022-12-29T03:30:55;11.10;99.90
15115;DHT22;7658;51.456;7.622;2022-12-29T03:33:25;11.10;99.90
15115;DHT22;7658;51.456;7.622;2022-12-29T03:35:55;11.10;99.90
15115;DHT22;7658;51.456;7.622;2022-12-29T03:38:38;11.00;99.90
15115;DHT22;7658;51.456;7.622;2022-12-29T03:41:10;11.00;99.90
15115;DHT22;7658;51.456;7.622;2022-12-29T03:43:37;10.80;99.90
15115;DHT22;7658;51.456;7.622;2022-12-29T03:46:03;10.70;99.90
15115;DHT22;7658;51.456;7.622;2022-12-29T03:48:28;10.60;99.90
15115;DHT22;7658;51.456;7.622;2022-12-29T03:50:54;10.50;99.90
15115;DHT22;7658;51.456;7.622;2022-12-29T03:53:20;10.40;99.90
15115;DHT22;7658;51.456;7.622;2022-12-29T03:55:46;10.40;99.90
15115;DHT22;7658;51.456;7.622;2022-12-29T03:58:12;10.30;99.90
15115;DHT22;7658;51.456;7.622;2022-12-29T04:00:38;10.30;99.90
15115;DHT22;7658;51.456;7.622;2022-12-29T04:03:03;10.30;99.90
15115;DHT22;7658;51.456;7.622;2022-12-29T04:05:29;10.30;99.90
15115;DHT22;7658;51.456;7.622;2022-12-29T04:07:56;10.30;99.90
15115;DHT22;7658;51.456;7.622;2022-12-29T04:10:22;10.30;99.90
15115;DHT22;7658;51.456;7.622;2022-12-29T04:12:47;10.20;99.90
15115;DHT22;7658;51.456;7.622;2022-12-29T04:15:14;10.20;99.90
15115;DHT22;7658;51.456;7.622;2022-12-29T04:17:39;10.20;99.90
15115;DHT22;7658;51.456;7.622;2022-12-29T04:20:05;10.20;99.90
15115;DHT22;7658;51.456;7.622;2022-12-29T04:23:01;10.20;99.90
15115;DHT22;7658;51.456;7.622;2022-12-29T04:25:27;10.20;99.90
15115;DHT22;7658;51.456;7.622;2022-12-29T04:27:52;10.20;99.90
15115;DHT22;7658;51.456;7.622;2022-12-29T04:30:18;10.30;99.90
15115;DHT22;7658;51.456;7.622;2022-12-29T04:32:44;10.30;99.90
15115;DHT22;7658;51.456;7.622;2022-12-29T04:35:09;10.40;99.90
15115;DHT22;7658;51.456;7.622;2022-12-29T04:37:35;10.40;99.90
15115;DHT22;7658;51.456;7.622;2022-12-29T04:40:01;10.50;99.90
15115;DHT22;7658;51.456;7.622;2022-12-29T04:42:27;10.60;99.90
15115;DHT22;7658;51.456;7.622;2022-12-29T04:44:52;10.60;99.90
15115;DHT22;7658;51.456;7.622;2022-12-29T04:47:18;10.60;99.90
15115;DHT22;7658;51.456;7.622;2022-12-29T04:49:44;10.80;99.90
15115;DHT22;7658;51.456;7.622;2022-12-29T04:52:09;10.70;99.90
15115;DHT22;7658;51.456;7.622;2022-12-29T04:54:35;10.70;99.90
15115;DHT22;7658;51.456;7.622;2022-12-29T04:57:01;10.70;99.90
15115;DHT22;7658;51.456;7.622;2022-12-29T04:59:27;10.80;99.90
15115;DHT22;7658;51.456;7.622;2022-12-29T05:01:53;10.80;99.90
15115;DHT22;7658;51.456;7.622;2022-12-29T05:04:19;10.80;99.90
15115;DHT22;7658;51.456;7.622;2022-12-29T05:06:44;10.90;99.90
15115;DHT22;7658;51.456;7.622;2022-12-29T05:09:10;11.00;99.90
15115;DHT22;7658;51.456;7.622;2022-12-29T05:11:36;11.10;99.90
15115;DHT22;7658;51.456;7.622;2022-12-29T05:14:01;11.10;99.90
15115;DHT22;7658;51.456;7.622;2022-12-29T05:16:27;11.10;99.90
15115;DHT22;7658;51.456;7.622;2022-12-29T05:18:53;11.10;99.90
15115;DHT22;7658;51.456;7.622;2022-12-29T05:21:19;11.10;99.90
15115;DHT22;7658;51.456;7.622;2022-12-29T05:23:44;11.20;99.90
15115;DHT22;7658;51.456;7.622;2022-12-29T05:26:10;11.30;99.90
15115;DHT22;7658;51.456;7.622;2022-12-29T05:28:36;11.30;99.90
15115;DHT22;7658;51.456;7.622;2022-12-29T05:31:01;11.30;99.90
15115;DHT22;7658;51.456;7.622;2022-12-29T05:33:27;11.40;99.90
15115;DHT22;7658;51.456;7.622;2022-12-29T05:35:53;11.50;99.90
15115;DHT22;7658;51.456;7.622;2022-12-29T05:38:19;11.40;99.90
15115;DHT22;7658;51.456;7.622;2022-12-29T05:40:45;11.40;99.90
15115;DHT22;7658;51.456;7.622;2022-12-29T05:43:10;11.40;99.90
15115;DHT22;7658;51.456;7.622;2022-12-29T05:45:36;11.60;99.90
15115;DHT22;7658;51.456;7.622;2022-12-29T05:48:02;11.60;99.90
15115;DHT22;7658;51.456;7.622;2022-12-29T05:50:28;11.70;99.90
15115;DHT22;7658;51.456;7.622;2022-12-29T05:52:54;11.70;99.90
15115;DHT22;7658;51.456;7.622;2022-12-29T05:55:20;11.70;99.90
15115;DHT22;7658;51.456;7.622;2022-12-29T05:57:45;11.70;99.90
15115;DHT22;7658;51.456;7.622;2022-12-29T06:00:12;11.70;99.90
15115;DHT22;7658;51.456;7.622;2022-12-29T06:02:37;11.70;99.90
15115;DHT22;7658;51.456;7.622;2022-12-29T06:05:03;11.60;99.90
15115;DHT22;7658;51.456;7.622;2022-12-29T06:07:29;11.60;99.90
15115;DHT22;7658;51.456;7.622;2022-12-29T06:09:55;11.70;99.90
15115;DHT22;7658;51.456;7.622;2022-12-29T06:12:21;11.60;99.90
15115;DHT22;7658;51.456;7.622;2022-12-29T06:14:46;11.60;99.90
15115;DHT22;7658;51.456;7.622;2022-12-29T06:17:12;11.60;99.90
15115;DHT22;7658;51.456;7.622;2022-12-29T06:19:38;11.50;99.90
15115;DHT22;7658;51.456;7.622;2022-12-29T06:22:04;11.50;99.90
15115;DHT22;7658;51.456;7.622;2022-12-29T06:24:30;11.50;99.90
15115;DHT22;7658;51.456;7.622;2022-12-29T06:26:56;11.50;99.90
15115;DHT22;7658;51.456;7.622;2022-12-29T06:29:21;11.40;99.90
15115;DHT22;7658;51.456;7.622;2022-12-29T06:31:47;11.40;99.90
15115;DHT22;7658;51.456;7.622;2022-12-29T06:34:14;11.40;99.90
15115;DHT22;7658;51.456;7.622;2022-12-29T06:36:40;11.40;99.90
15115;DHT22;7658;51.456;7.622;2022-12-29T06:39:06;11.40;99.90
15115;DHT22;7658;51.456;7.622;2022-12-29T06:41:32;11.50;99.90
15115;DHT22;7658;51.456;7.622;2022-12-29T06:43:57;11.50;99.90
15115;DHT22;7658;51.456;7.622;2022-12-29T06:46:23;11.50;99.90
15115;DHT22;7658;51.456;7.622;2022-12-29T06:48:49;11.50;99.90
15115;DHT22;7658;51.456;7.622;2022-12-29T06:51:15;11.50;99.90
15115;DHT22;7658;51.456;7.622;2022-12-29T06:53:40;11.50;99.90
15115;DHT22;7658;51.456;7.622;2022-12-29T06:56:06;11.60;99.90
15115;DHT22;7658;51.456;7.622;2022-12-29T06:58:32;11.60;99.90
15115;DHT22;7658;51.456;7.622;2022-12-29T07:00:58;11.50;99.90
15115;DHT22;7658;51.456;7.622;2022-12-29T07:03:24;11.50;99.90
15115;DHT22;7658;51.456;7.622;2022-12-29T07:05:49;11.40;99.90
15115;DHT22;7658;51.456;7.622;2022-12-29T07:08:15;11.40;99.90
15115;DHT22;7658;51.456;7.622;2022-12-29T07:10:41;11.40;99.90
15115;DHT22;7658;51.456;7.622;2022-12-29T07:13:07;11.40;99.90
15115;DHT22;7658;51.456;7.622;2022-12-29T07:15:33;11.40;99.90
15115;DHT22;7658;51.456;7.622;2022-12-29T07:17:59;11.40;99.90
15115;DHT22;7658;51.456;7.622;2022-12-29T07:20:25;11.40;99.90
15115;DHT22;7658;51.456;7.622;2022-12-29T07:22:51;11.40;99.90
15115;DHT22;7658;51.456;7.622;2022-12-29T07:25:17;11.30;99.90
15115;DHT22;7658;51.456;7.622;2022-12-29T07:27:42;11.20;99.90
15115;DHT22;7658;51.456;7.622;2022-12-29T07:30:08;11.10;99.90
15115;DHT22;7658;51.456;7.622;2022-12-29T07:32:35;11.10;99.90
15115;DHT22;7658;51.456;7.622;2022-12-29T07:35:01;11.10;99.90
15115;DHT22;7658;51.456;7.622;2022-12-29T07:37:27;11.00;99.90
15115;DHT22;7658;51.456;7.622;2022-12-29T07:39:52;11.00;99.90
15115;DHT22;7658;51.456;7.622;2022-12-29T07:42:18;11.00;99.90
15115;DHT22;7658;51.456;7.622;2022-12-29T07:44:44;11.00;99.90
15115;DHT22;7658;51.456;7.622;2022-12-29T07:47:09;11.00;99.90
15115;DHT22;7658;51.456;7.622;2022-12-29T07:49:35;11.00;99.90
15115;DHT22;7658;51.456;7.622;2022-12-29T07:52:01;10.90;99.90
15115;DHT22;7658;51.456;7.622;2022-12-29T07:54:27;10.80;99.90
15115;DHT22;7658;51.456;7.622;2022-12-29T07:56:52;10.80;99.90
15115;DHT22;7658;51.456;7.622;2022-12-29T07:59:18;10.70;99.90
15115;DHT22;7658;51.456;7.622;2022-12-29T08:01:44;10.70;99.90
15115;DHT22;7658;51.456;7.622;2022-12-29T08:04:10;10.80;99.90
15115;DHT22;7658;51.456;7.622;2022-12-29T08:06:36;10.70;99.90
15115;DHT22;7658;51.456;7.622;2022-12-29T08:09:03;10.60;99.90
15115;DHT22;7658;51.456;7.622;2022-12-29T08:11:29;10.60;99.90
15115;DHT22;7658;51.456;7.622;2022-12-29T08:13:55;10.60;99.90
15115;DHT22;7658;51.456;7.622;2022-12-29T08:16:20;10.50;99.90
15115;DHT22;7658;51.456;7.622;2022-12-29T08:18:46;10.50;99.90
15115;DHT22;7658;51.456;7.622;2022-12-29T08:21:12;10.50;99.90
15115;DHT22;7658;51.456;7.622;2022-12-29T08:23:38;10.60;99.90
15115;DHT22;7658;51.456;7.622;2022-12-29T08:26:05;10.60;99.90
15115;DHT22;7658;51.456;7.622;2022-12-29T08:28:32;10.70;99.90
15115;DHT22;7658;51.456;7.622;2022-12-29T08:30:59;10.80;99.90
15115;DHT22;7658;51.456;7.622;2022-12-29T08:33:25;10.80;99.90
15115;DHT22;7658;51.456;7.622;2022-12-29T08:35:51;10.80;99.90
15115;DHT22;7658;51.456;7.622;2022-12-29T08:38:16;10.90;99.90
15115;DHT22;7658;51.456;7.622;2022-12-29T08:40:43;10.90;99.90
15115;DHT22;7658;51.456;7.622;2022-12-29T08:43:09;11.00;99.90
15115;DHT22;7658;51.456;7.622;2022-12-29T08:45:35;10.90;99.90
15115;DHT22;7658;51.456;7.622;2022-12-29T08:48:01;10.90;99.90
15115;DHT22;7658;51.456;7.622;2022-12-29T08:50:27;10.90;99.90
15115;DHT22;7658;51.456;7.622;2022-12-29T08:52:52;10.90;99.90
15115;DHT22;7658;51.456;7.622;2022-12-29T08:55:18;10.90;99.90
15115;DHT22;7658;51.456;7.622;2022-12-29T08:57:44;10.90;99.90
15115;DHT22;7658;51.456;7.622;2022-12-29T09:00:11;10.90;99.90
15115;DHT22;7658;51.456;7.622;2022-12-29T09:02:37;10.90;99.90
15115;DHT22;7658;51.456;7.622;2022-12-29T09:05:03;11.10;99.90
15115;DHT22;7658;51.456;7.622;2022-12-29T09:07:28;11.00;99.90
15115;DHT22;7658;51.456;7.622;2022-12-29T09:09:54;11.10;99.90
15115;DHT22;7658;51.456;7.622;2022-12-29T09:12:20;11.00;99.90
15115;DHT22;7658;51.456;7.622;2022-12-29T09:14:46;11.00;99.90
15115;DHT22;7658;51.456;7.622;2022-12-29T09:17:12;10.90;99.90
15115;DHT22;7658;51.456;7.622;2022-12-29T09:19:56;10.80;99.90
15115;DHT22;7658;51.456;7.622;2022-12-29T09:22:22;10.60;99.90
15115;DHT22;7658;51.456;7.622;2022-12-29T09:24:48;10.40;99.90
15115;DHT22;7658;51.456;7.622;2022-12-29T09:27:14;10.20;99.90
15115;DHT22;7658;51.456;7.622;2022-12-29T09:29:39;9.90;99.90
15115;DHT22;7658;51.456;7.622;2022-12-29T09:32:05;9.60;99.90
15115;DHT22;7658;51.456;7.622;2022-12-29T09:34:31;9.50;99.90
15115;DHT22;7658;51.456;7.622;2022-12-29T09:36:57;9.40;99.90
15115;DHT22;7658;51.456;7.622;2022-12-29T09:39:23;9.40;99.90
15115;DHT22;7658;51.456;7.622;2022-12-29T09:42:16;9.30;99.90
15115;DHT22;7658;51.456;7.622;2022-12-29T09:45:00;9.30;99.90
15115;DHT22;7658;51.456;7.622;2022-12-29T09:47:29;9.30;99.90
15115;DHT22;7658;51.456;7.622;2022-12-29T09:52:40;9.50;99.90
15115;DHT22;7658;51.456;7.622;2022-12-29T09:55:15;9.60;99.90
15115;DHT22;7658;51.456;7.622;2022-12-29T09:57:56;9.60;99.90
15115;DHT22;7658;51.456;7.622;2022-12-29T10:00:37;9.60;99.90
15115;DHT22;7658;51.456;7.622;2022-12-29T10:03:19;9.60;99.90
15115;DHT22;7658;51.456;7.622;2022-12-29T10:06:07;9.70;99.90
15115;DHT22;7658;51.456;7.622;2022-12-29T10:24:11;10.20;99.90
15115;DHT22;7658;51.456;7.622;2022-12-29T10:26:40;10.30;99.90
15115;DHT22;7658;51.456;7.622;2022-12-29T10:29:16;10.30;99.90
15115;DHT22;7658;51.456;7.622;2022-12-29T10:34:34;10.40;99.90
15115;DHT22;7658;51.456;7.622;2022-12-29T10:37:15;10.50;99.90
15115;DHT22;7658;51.456;7.622;2022-12-29T10:39:48;10.70;99.90
15115;DHT22;7658;51.456;7.622;2022-12-29T10:42:26;10.70;99.90
15115;DHT22;7658;51.456;7.622;2022-12-29T10:44:53;10.70;99.90
15115;DHT22;7658;51.456;7.622;2022-12-29T10:47:23;10.80;99.90
15115;DHT22;7658;51.456;7.622;2022-12-29T10:49:50;10.80;99.90
15115;DHT22;7658;51.456;7.622;2022-12-29T10:52:17;10.80;99.90
15115;DHT22;7658;51.456;7.622;2022-12-29T10:55:02;10.80;99.90
15115;DHT22;7658;51.456;7.622;2022-12-29T10:57:41;10.80;99.90
15115;DHT22;7658;51.456;7.622;2022-12-29T11:00:19;10.80;99.90
15115;DHT22;7658;51.456;7.622;2022-12-29T11:08:02;10.90;99.90
15115;DHT22;7658;51.456;7.622;2022-12-29T11:13:16;10.90;99.90
15115;DHT22;7658;51.456;7.622;2022-12-29T11:15:48;10.90;99.90
15115;DHT22;7658;51.456;7.622;2022-12-29T11:20:47;10.90;99.90
15115;DHT22;7658;51.456;7.622;2022-12-29T11:23:37;10.90;99.90
15115;DHT22;7658;51.456;7.622;2022-12-29T11:26:14;10.90;99.90
15115;DHT22;7658;51.456;7.622;2022-12-29T11:28:43;10.90;99.90
15115;DHT22;7658;51.456;7.622;2022-12-29T11:31:10;10.90;99.90
15115;DHT22;7658;51.456;7.622;2022-12-29T11:33:38;10.90;99.90
15115;DHT22;7658;51.456;7.622;2022-12-29T11:36:22;10.90;99.90
15115;DHT22;7658;51.456;7.622;2022-12-29T11:38:50;10.90;99.90
15115;DHT22;7658;51.456;7.622;2022-12-29T11:41:25;10.90;99.90
15115;DHT22;7658;51.456;7.622;2022-12-29T11:43:55;10.90;99.90
15115;DHT22;7658;51.456;7.622;2022-12-29T11:46:32;10.90;99.90
15115;DHT22;7658;51.456;7.622;2022-12-29T11:48:59;10.90;99.90
15115;DHT22;7658;51.456;7.622;2022-12-29T11:51:58;10.90;99.90
15115;DHT22;7658;51.456;7.622;2022-12-29T11:54:31;10.90;99.90
15115;DHT22;7658;51.456;7.622;2022-12-29T11:56:58;10.90;99.90
15115;DHT22;7658;51.456;7.622;2022-12-29T11:59:40;10.90;99.90
15115;DHT22;7658;51.456;7.622;2022-12-29T12:04:51;11.00;99.90
15115;DHT22;7658;51.456;7.622;2022-12-29T12:07:22;10.90;99.90
15115;DHT22;7658;51.456;7.622;2022-12-29T12:09:57;10.90;99.90
15115;DHT22;7658;51.456;7.622;2022-12-29T12:15:43;10.90;99.90
15115;DHT22;7658;51.456;7.622;2022-12-29T12:18:40;10.90;99.90
15115;DHT22;7658;51.456;7.622;2022-12-29T12:21:19;10.90;99.90
15115;DHT22;7658;51.456;7.622;2022-12-29T12:29:20;11.00;99.90
15115;DHT22;7658;51.456;7.622;2022-12-29T12:31:58;11.00;99.90
15115;DHT22;7658;51.456;7.622;2022-12-29T12:34:37;10.90;99.90
15115;DHT22;7658;51.456;7.622;2022-12-29T12:39:39;10.90;99.90
15115;DHT22;7658;51.456;7.622;2022-12-29T12:42:44;10.90;99.90
15115;DHT22;7658;51.456;7.622;2022-12-29T12:48:13;10.80;99.90
15115;DHT22;7658;51.456;7.622;2022-12-29T12:53:56;10.70;99.90
15115;DHT22;7658;51.456;7.622;2022-12-29T13:02:00;10.70;99.90
15115;DHT22;7658;51.456;7.622;2022-12-29T13:15:58;10.60;99.90
15115;DHT22;7658;51.456;7.622;2022-12-29T13:18:59;10.60;99.90
15115;DHT22;7658;51.456;7.622;2022-12-29T13:26:51;10.60;99.90
15115;DHT22;7658;51.456;7.622;2022-12-29T13:32:03;10.60;99.90
15115;DHT22;7658;51.456;7.622;2022-12-29T13:37:26;10.50;99.90
15115;DHT22;7658;51.456;7.622;2022-12-29T13:40:03;10.50;99.90
15115;DHT22;7658;51.456;7.622;2022-12-29T13:42:35;10.50;99.90
15115;DHT22;7658;51.456;7.622;2022-12-29T13:45:06;10.50;99.90
15115;DHT22;7658;51.456;7.622;2022-12-29T13:47:46;10.50;99.90
15115;DHT22;7658;51.456;7.622;2022-12-29T13:50:17;10.50;99.90
15115;DHT22;7658;51.456;7.622;2022-12-29T13:52:51;10.50;99.90
15115;DHT22;7658;51.456;7.622;2022-12-29T14:00:22;10.50;99.90
15115;DHT22;7658;51.456;7.622;2022-12-29T14:03:17;10.50;99.90
15115;DHT22;7658;51.456;7.622;2022-12-29T14:06:13;10.50;99.90
15115;DHT22;7658;51.456;7.622;2022-12-29T14:08:40;10.40;99.90
15115;DHT22;7658;51.456;7.622;2022-12-29T14:11:11;10.40;99.90
15115;DHT22;7658;51.456;7.622;2022-12-29T14:13:39;10.40;99.90
15115;DHT22;7658;51.456;7.622;2022-12-29T14:16:06;10.50;99.90
15115;DHT22;7658;51.456;7.622;2022-12-29T14:18:34;10.50;99.90
15115;DHT22;7658;51.456;7.622;2022-12-29T14:23:43;10.40;99.90
15115;DHT22;7658;51.456;7.622;2022-12-29T14:28:51;10.50;99.90
15115;DHT22;7658;51.456;7.622;2022-12-29T14:36:35;10.40;99.90
15115;DHT22;7658;51.456;7.622;2022-12-29T14:39:02;10.40;99.90
15115;DHT22;7658;51.456;7.622;2022-12-29T14:41:41;10.40;99.90
15115;DHT22;7658;51.456;7.622;2022-12-29T14:49:21;10.40;99.90
15115;DHT22;7658;51.456;7.622;2022-12-29T14:51:51;10.40;99.90
15115;DHT22;7658;51.456;7.622;2022-12-29T14:54:34;10.40;99.90
15115;DHT22;7658;51.456;7.622;2022-12-29T14:57:19;10.40;99.90
15115;DHT22;7658;51.456;7.622;2022-12-29T14:59:46;10.40;99.90
15115;DHT22;7658;51.456;7.622;2022-12-29T15:02:24;10.40;99.90
15115;DHT22;7658;51.456;7.622;2022-12-29T15:04:53;10.40;99.90
15115;DHT22;7658;51.456;7.622;2022-12-29T15:07:19;10.40;99.90
15115;DHT22;7658;51.456;7.622;2022-12-29T15:09:50;10.40;99.90
15115;DHT22;7658;51.456;7.622;2022-12-29T15:14:55;10.40;99.90
15115;DHT22;7658;51.456;7.622;2022-12-29T15:19:52;10.30;99.90
15115;DHT22;7658;51.456;7.622;2022-12-29T15:22:18;10.30;99.90
15115;DHT22;7658;51.456;7.622;2022-12-29T15:24:44;10.30;99.90
15115;DHT22;7658;51.456;7.622;2022-12-29T15:27:14;10.20;99.90
15115;DHT22;7658;51.456;7.622;2022-12-29T15:29:45;10.20;99.90
15115;DHT22;7658;51.456;7.622;2022-12-29T15:32:28;10.20;99.90
15115;DHT22;7658;51.456;7.622;2022-12-29T15:34:56;10.20;99.90
15115;DHT22;7658;51.456;7.622;2022-12-29T15:37:24;10.20;99.90
15115;DHT22;7658;51.456;7.622;2022-12-29T15:39:51;10.20;99.90
15115;DHT22;7658;51.456;7.622;2022-12-29T15:44:57;10.20;99.90
15115;DHT22;7658;51.456;7.622;2022-12-29T15:47:29;10.20;99.90
15115;DHT22;7658;51.456;7.622;2022-12-29T15:50:06;10.10;99.90
15115;DHT22;7658;51.456;7.622;2022-12-29T15:52:33;10.10;99.90
15115;DHT22;7658;51.456;7.622;2022-12-29T15:54:59;10.10;99.90
15115;DHT22;7658;51.456;7.622;2022-12-29T15:57:31;10.10;99.90
15115;DHT22;7658;51.456;7.622;2022-12-29T16:00:02;10.00;99.90
15115;DHT22;7658;51.456;7.622;2022-12-29T16:02:28;10.00;99.90
15115;DHT22;7658;51.456;7.622;2022-12-29T16:04:55;10.10;99.90
15115;DHT22;7658;51.456;7.622;2022-12-29T16:07:28;10.10;99.90
15115;DHT22;7658;51.456;7.622;2022-12-29T16:10:00;10.10;99.90
15115;DHT22;7658;51.456;7.622;2022-12-29T16:12:35;10.10;99.90
15115;DHT22;7658;51.456;7.622;2022-12-29T16:17:36;10.10;99.90
15115;DHT22;7658;51.456;7.622;2022-12-29T16:20:24;10.10;99.90
15115;DHT22;7658;51.456;7.622;2022-12-29T16:22:54;10.00;99.90
15115;DHT22;7658;51.456;7.622;2022-12-29T16:25:24;10.00;99.90
15115;DHT22;7658;51.456;7.622;2022-12-29T16:27:51;10.00;99.90
15115;DHT22;7658;51.456;7.622;2022-12-29T16:32:53;10.00;99.90
15115;DHT22;7658;51.456;7.622;2022-12-29T16:38:16;10.00;99.90
15115;DHT22;7658;51.456;7.622;2022-12-29T16:43:29;9.90;99.90
15115;DHT22;7658;51.456;7.622;2022-12-29T16:48:28;10.00;99.90
15115;DHT22;7658;51.456;7.622;2022-12-29T16:51:11;9.90;99.90
15115;DHT22;7658;51.456;7.622;2022-12-29T16:53:39;9.90;99.90
15115;DHT22;7658;51.456;7.622;2022-12-29T16:56:17;9.90;99.90
15115;DHT22;7658;51.456;7.622;2022-12-29T16:59:37;9.90;99.90
15115;DHT22;7658;51.456;7.622;2022-12-29T17:01:38;9.80;99.90
15115;DHT22;7658;51.456;7.622;2022-12-29T17:04:07;9.80;99.90
15115;DHT22;7658;51.456;7.622;2022-12-29T17:06:33;9.80;99.90
15115;DHT22;7658;51.456;7.622;2022-12-29T17:08:59;9.80;99.90
15115;DHT22;7658;51.456;7.622;2022-12-29T17:16:53;9.70;99.90
15115;DHT22;7658;51.456;7.622;2022-12-29T17:19:25;9.70;99.90
15115;DHT22;7658;51.456;7.622;2022-12-29T17:21:52;9.70;99.90
15115;DHT22;7658;51.456;7.622;2022-12-29T17:24:19;9.70;99.90
15115;DHT22;7658;51.456;7.622;2022-12-29T17:26:51;9.70;99.90
15115;DHT22;7658;51.456;7.622;2022-12-29T17:29:33;9.60;99.90
15115;DHT22;7658;51.456;7.622;2022-12-29T17:32:02;9.70;99.90
15115;DHT22;7658;51.456;7.622;2022-12-29T17:34:28;9.70;99.90
15115;DHT22;7658;51.456;7.622;2022-12-29T17:36:54;9.70;99.90
15115;DHT22;7658;51.456;7.622;2022-12-29T17:39:20;9.70;99.90
15115;DHT22;7658;51.456;7.622;2022-12-29T17:41:46;9.70;99.90
15115;DHT22;7658;51.456;7.622;2022-12-29T17:44:16;9.70;99.90
15115;DHT22;7658;51.456;7.622;2022-12-29T17:46:43;9.70;99.90
15115;DHT22;7658;51.456;7.622;2022-12-29T17:49:14;9.70;99.90
15115;DHT22;7658;51.456;7.622;2022-12-29T17:51:44;9.70;99.90
15115;DHT22;7658;51.456;7.622;2022-12-29T17:54:29;9.70;99.90
15115;DHT22;7658;51.456;7.622;2022-12-29T17:56:55;9.60;99.90
15115;DHT22;7658;51.456;7.622;2022-12-29T17:59:20;9.40;99.90
15115;DHT22;7658;51.456;7.622;2022-12-29T18:01:47;9.20;99.90
15115;DHT22;7658;51.456;7.622;2022-12-29T18:04:15;9.00;99.90
15115;DHT22;7658;51.456;7.622;2022-12-29T18:06:42;8.80;99.90
15115;DHT22;7658;51.456;7.622;2022-12-29T18:09:09;8.60;99.90
15115;DHT22;7658;51.456;7.622;2022-12-29T18:11:39;8.40;99.90
15115;DHT22;7658;51.456;7.622;2022-12-29T18:14:11;8.30;99.90
15115;DHT22;7658;51.456;7.622;2022-12-29T18:16:38;8.30;99.90
15115;DHT22;7658;51.456;7.622;2022-12-29T18:19:03;8.30;99.90
15115;DHT22;7658;51.456;7.622;2022-12-29T18:21:29;8.30;99.90
15115;DHT22;7658;51.456;7.622;2022-12-29T18:23:55;8.30;99.90
15115;DHT22;7658;51.456;7.622;2022-12-29T18:26:23;8.30;99.90
15115;DHT22;7658;51.456;7.622;2022-12-29T18:28:50;8.30;99.90
15115;DHT22;7658;51.456;7.622;2022-12-29T18:31:20;8.30;99.90
15115;DHT22;7658;51.456;7.622;2022-12-29T18:33:47;8.30;99.90
15115;DHT22;7658;51.456;7.622;2022-12-29T18:36:13;8.40;99.90
15115;DHT22;7658;51.456;7.622;2022-12-29T18:38:40;8.40;99.90
15115;DHT22;7658;51.456;7.622;2022-12-29T18:41:13;8.30;99.90
15115;DHT22;7658;51.456;7.622;2022-12-29T18:43:40;8.10;99.90
15115;DHT22;7658;51.456;7.622;2022-12-29T18:46:05;7.90;99.90
15115;DHT22;7658;51.456;7.622;2022-12-29T18:48:31;7.70;99.90
15115;DHT22;7658;51.456;7.622;2022-12-29T18:50:57;7.60;99.90
15115;DHT22;7658;51.456;7.622;2022-12-29T18:53:24;7.50;99.90